sensor_id;sensor_type;location;lat;lon;timestamp;temperature;humidity
70682;SHT31;58261;48.228;11.686;2022-10-10T00:02:56;9.6;78
70682;SHT31;58261;48.228;11.686;2022-10-10T00:06:16;9.6;78
70682;SHT31;58261;48.228;11.686;2022-10-10T00:09:36;9.6;78
70682;SHT31;58261;48.228;11.686;2022-10-10T00:12:56;9.6;78
70682;SHT31;58261;48.228;11.686;2022-10-10T00:16:17;9.6;78
70682;SHT31;58261;48.228;11.686;2022-10-10T00:19:36;9.6;78
70682;SHT31;58261;48.228;11.686;2022-10-10T00:22:56;9.6;78
70682;SHT31;58261;48.228;11.686;2022-10-10T00:26:16;9.6;78
70682;SHT31;58261;48.228;11.686;2022-10-10T00:29:36;9.6;78
70682;SHT31;58261;48.228;11.686;2022-10-10T00:32:57;9.6;78
70682;SHT31;58261;48.228;11.686;2022-10-10T00:36:16;9.7;79
70682;SHT31;58261;48.228;11.686;2022-10-10T00:39:36;9.7;79
70682;SHT31;58261;48.228;11.686;2022-10-10T00:42:56;9.7;79
70682;SHT31;58261;48.228;11.686;2022-10-10T00:46:16;9.7;81
70682;SHT31;58261;48.228;11.686;2022-10-10T00:49:37;9.7;81
70682;SHT31;58261;48.228;11.686;2022-10-10T00:52:56;9.7;81
70682;SHT31;58261;48.228;11.686;2022-10-10T00:56:19;9.7;81
70682;SHT31;58261;48.228;11.686;2022-10-10T00:59:37;9.6;82
70682;SHT31;58261;48.228;11.686;2022-10-10T01:02:56;9.6;82
70682;SHT31;58261;48.228;11.686;2022-10-10T01:06:16;9.6;82
70682;SHT31;58261;48.228;11.686;2022-10-10T01:09:37;9.6;82
70682;SHT31;58261;48.228;11.686;2022-10-10T01:13:01;9.6;82
70682;SHT31;58261;48.228;11.686;2022-10-10T01:16:17;9.6;82
70682;SHT31;58261;48.228;11.686;2022-10-10T01:23:01;9.6;83
70682;SHT31;58261;48.228;11.686;2022-10-10T01:26:22;9.6;83
70682;SHT31;58261;48.228;11.686;2022-10-10T01:29:37;9.6;83
70682;SHT31;58261;48.228;11.686;2022-10-10T01:32:59;9.6;84
70682;SHT31;58261;48.228;11.686;2022-10-10T01:36:18;9.6;84
70682;SHT31;58261;48.228;11.686;2022-10-10T01:39:38;9.6;84
70682;SHT31;58261;48.228;11.686;2022-10-10T01:42:57;9.7;85
70682;SHT31;58261;48.228;11.686;2022-10-10T01:46:17;9.7;85
70682;SHT31;58261;48.228;11.686;2022-10-10T01:49:37;9.7;85
70682;SHT31;58261;48.228;11.686;2022-10-10T01:53:00;9.8;85
70682;SHT31;58261;48.228;11.686;2022-10-10T01:56:19;9.8;85
70682;SHT31;58261;48.228;11.686;2022-10-10T01:59:39;9.8;85
70682;SHT31;58261;48.228;11.686;2022-10-10T02:02:57;9.8;86
70682;SHT31;58261;48.228;11.686;2022-10-10T02:06:18;9.8;86
70682;SHT31;58261;48.228;11.686;2022-10-10T02:09:37;9.8;86
70682;SHT31;58261;48.228;11.686;2022-10-10T02:12:57;9.8;86
70682;SHT31;58261;48.228;11.686;2022-10-10T02:16:17;9.9;87
70682;SHT31;58261;48.228;11.686;2022-10-10T02:19:37;9.9;87
70682;SHT31;58261;48.228;11.686;2022-10-10T02:22:57;9.9;87
70682;SHT31;58261;48.228;11.686;2022-10-10T02:26:17;9.9;87
70682;SHT31;58261;48.228;11.686;2022-10-10T02:29:37;9.9;87
70682;SHT31;58261;48.228;11.686;2022-10-10T02:32:57;9.9;87
70682;SHT31;58261;48.228;11.686;2022-10-10T02:36:17;9.9;87
70682;SHT31;58261;48.228;11.686;2022-10-10T02:39:37;9.9;87
70682;SHT31;58261;48.228;11.686;2022-10-10T02:42:58;9.9;87
70682;SHT31;58261;48.228;11.686;2022-10-10T02:46:17;9.9;87
70682;SHT31;58261;48.228;11.686;2022-10-10T02:49:37;9.9;87
70682;SHT31;58261;48.228;11.686;2022-10-10T02:52:57;9.9;87
70682;SHT31;58261;48.228;11.686;2022-10-10T02:56:17;9.9;87
70682;SHT31;58261;48.228;11.686;2022-10-10T02:59:37;10.0;88
70682;SHT31;58261;48.228;11.686;2022-10-10T03:02:57;10.0;88
70682;SHT31;58261;48.228;11.686;2022-10-10T03:06:17;10.0;88
70682;SHT31;58261;48.228;11.686;2022-10-10T03:09:37;10.0;88
70682;SHT31;58261;48.228;11.686;2022-10-10T03:12:57;10.0;88
70682;SHT31;58261;48.228;11.686;2022-10-10T03:16:17;10.0;88
70682;SHT31;58261;48.228;11.686;2022-10-10T03:19:37;10.0;88
70682;SHT31;58261;48.228;11.686;2022-10-10T03:22:57;10.0;88
70682;SHT31;58261;48.228;11.686;2022-10-10T03:26:17;10.0;88
70682;SHT31;58261;48.228;11.686;2022-10-10T03:29:37;10.0;88
70682;SHT31;58261;48.228;11.686;2022-10-10T03:32:57;10.0;88
70682;SHT31;58261;48.228;11.686;2022-10-10T03:36:17;10.0;88
70682;SHT31;58261;48.228;11.686;2022-10-10T03:39:37;10.0;88
70682;SHT31;58261;48.228;11.686;2022-10-10T03:42:57;10.1;89
70682;SHT31;58261;48.228;11.686;2022-10-10T03:46:17;10.1;89
70682;SHT31;58261;48.228;11.686;2022-10-10T03:49:37;10.1;89
70682;SHT31;58261;48.228;11.686;2022-10-10T03:52:57;10.1;90
70682;SHT31;58261;48.228;11.686;2022-10-10T03:56:17;10.1;90
70682;SHT31;58261;48.228;11.686;2022-10-10T03:59:37;10.1;90
70682;SHT31;58261;48.228;11.686;2022-10-10T04:02:57;10.2;90
70682;SHT31;58261;48.228;11.686;2022-10-10T04:06:17;10.2;90
70682;SHT31;58261;48.228;11.686;2022-10-10T04:09:37;10.2;90
70682;SHT31;58261;48.228;11.686;2022-10-10T04:12:57;10.2;90
70682;SHT31;58261;48.228;11.686;2022-10-10T04:16:17;10.2;90
70682;SHT31;58261;48.228;11.686;2022-10-10T04:19:37;10.2;90
70682;SHT31;58261;48.228;11.686;2022-10-10T04:22:57;10.2;90
70682;SHT31;58261;48.228;11.686;2022-10-10T04:26:17;10.3;90
70682;SHT31;58261;48.228;11.686;2022-10-10T04:29:37;10.3;90
70682;SHT31;58261;48.228;11.686;2022-10-10T04:32:57;10.3;90
70682;SHT31;58261;48.228;11.686;2022-10-10T04:36:17;10.3;91
70682;SHT31;58261;48.228;11.686;2022-10-10T04:39:37;10.3;91
70682;SHT31;58261;48.228;11.686;2022-10-10T04:42:57;10.3;91
70682;SHT31;58261;48.228;11.686;2022-10-10T04:46:17;10.3;91
70682;SHT31;58261;48.228;11.686;2022-10-10T04:49:37;10.3;91
70682;SHT31;58261;48.228;11.686;2022-10-10T04:52:57;10.3;91
70682;SHT31;58261;48.228;11.686;2022-10-10T04:56:17;10.3;91
70682;SHT31;58261;48.228;11.686;2022-10-10T04:59:37;10.3;91
70682;SHT31;58261;48.228;11.686;2022-10-10T05:02:57;10.3;91
70682;SHT31;58261;48.228;11.686;2022-10-10T05:06:17;10.3;91
70682;SHT31;58261;48.228;11.686;2022-10-10T05:09:37;10.3;91
70682;SHT31;58261;48.228;11.686;2022-10-10T05:12:57;10.3;91
70682;SHT31;58261;48.228;11.686;2022-10-10T05:16:17;10.3;91
70682;SHT31;58261;48.228;11.686;2022-10-10T05:19:37;10.3;91
70682;SHT31;58261;48.228;11.686;2022-10-10T05:22:57;10.3;91
70682;SHT31;58261;48.228;11.686;2022-10-10T05:26:17;10.3;91
70682;SHT31;58261;48.228;11.686;2022-10-10T05:29:37;10.3;91
70682;SHT31;58261;48.228;11.686;2022-10-10T05:32:57;10.3;91
70682;SHT31;58261;48.228;11.686;2022-10-10T05:36:17;10.3;91
70682;SHT31;58261;48.228;11.686;2022-10-10T05:39:37;10.3;91
70682;SHT31;58261;48.228;11.686;2022-10-10T05:42:57;10.3;91
70682;SHT31;58261;48.228;11.686;2022-10-10T05:46:17;10.3;91
70682;SHT31;58261;48.228;11.686;2022-10-10T05:49:37;10.3;91
70682;SHT31;58261;48.228;11.686;2022-10-10T05:52:57;10.2;91
70682;SHT31;58261;48.228;11.686;2022-10-10T05:56:17;10.2;91
70682;SHT31;58261;48.228;11.686;2022-10-10T05:59:37;10.2;91
70682;SHT31;58261;48.228;11.686;2022-10-10T06:02:57;10.3;91
70682;SHT31;58261;48.228;11.686;2022-10-10T06:06:17;10.3;91
70682;SHT31;58261;48.228;11.686;2022-10-10T06:09:37;10.3;91
70682;SHT31;58261;48.228;11.686;2022-10-10T06:12:57;10.3;92
70682;SHT31;58261;48.228;11.686;2022-10-10T06:16:17;10.3;92
70682;SHT31;58261;48.228;11.686;2022-10-10T06:19:37;10.3;92
70682;SHT31;58261;48.228;11.686;2022-10-10T06:22:57;10.3;92
70682;SHT31;58261;48.228;11.686;2022-10-10T06:26:17;10.3;92
70682;SHT31;58261;48.228;11.686;2022-10-10T06:29:37;10.3;92
70682;SHT31;58261;48.228;11.686;2022-10-10T06:32:57;10.3;92
70682;SHT31;58261;48.228;11.686;2022-10-10T06:36:17;10.4;92
70682;SHT31;58261;48.228;11.686;2022-10-10T06:39:37;10.4;92
70682;SHT31;58261;48.228;11.686;2022-10-10T06:42:57;10.4;92
70682;SHT31;58261;48.228;11.686;2022-10-10T06:46:17;10.4;92
70682;SHT31;58261;48.228;11.686;2022-10-10T06:49:37;10.4;92
70682;SHT31;58261;48.228;11.686;2022-10-10T06:52:57;10.4;92
70682;SHT31;58261;48.228;11.686;2022-10-10T06:56:17;10.4;92
70682;SHT31;58261;48.228;11.686;2022-10-10T06:59:37;10.4;92
70682;SHT31;58261;48.228;11.686;2022-10-10T07:02:57;10.4;92
70682;SHT31;58261;48.228;11.686;2022-10-10T07:06:17;10.5;92
70682;SHT31;58261;48.228;11.686;2022-10-10T07:09:37;10.5;92
70682;SHT31;58261;48.228;11.686;2022-10-10T07:12:57;10.5;92
70682;SHT31;58261;48.228;11.686;2022-10-10T07:16:17;10.5;92
70682;SHT31;58261;48.228;11.686;2022-10-10T07:19:37;10.5;91
70682;SHT31;58261;48.228;11.686;2022-10-10T07:22:57;10.5;91
70682;SHT31;58261;48.228;11.686;2022-10-10T07:26:17;10.5;91
70682;SHT31;58261;48.228;11.686;2022-10-10T07:29:37;10.5;91
70682;SHT31;58261;48.228;11.686;2022-10-10T07:32:57;10.5;91
70682;SHT31;58261;48.228;11.686;2022-10-10T07:36:17;10.5;91
70682;SHT31;58261;48.228;11.686;2022-10-10T07:39:37;10.6;91
70682;SHT31;58261;48.228;11.686;2022-10-10T07:42:57;10.6;91
70682;SHT31;58261;48.228;11.686;2022-10-10T07:46:17;10.6;91
70682;SHT31;58261;48.228;11.686;2022-10-10T07:49:37;10.7;91
70682;SHT31;58261;48.228;11.686;2022-10-10T07:52:57;10.7;91
70682;SHT31;58261;48.228;11.686;2022-10-10T07:56:17;10.7;91
70682;SHT31;58261;48.228;11.686;2022-10-10T07:59:37;10.7;91
70682;SHT31;58261;48.228;11.686;2022-10-10T08:02:57;10.8;91
70682;SHT31;58261;48.228;11.686;2022-10-10T08:06:17;10.8;91
70682;SHT31;58261;48.228;11.686;2022-10-10T08:09:37;10.8;91
70682;SHT31;58261;48.228;11.686;2022-10-10T08:12:57;10.9;91
70682;SHT31;58261;48.228;11.686;2022-10-10T08:16:17;10.9;91
70682;SHT31;58261;48.228;11.686;2022-10-10T08:19:37;10.9;91
70682;SHT31;58261;48.228;11.686;2022-10-10T08:22:57;11.0;91
70682;SHT31;58261;48.228;11.686;2022-10-10T08:26:17;11.0;91
70682;SHT31;58261;48.228;11.686;2022-10-10T08:29:37;11.0;91
70682;SHT31;58261;48.228;11.686;2022-10-10T08:32:57;11.1;91
70682;SHT31;58261;48.228;11.686;2022-10-10T08:36:18;11.1;91
70682;SHT31;58261;48.228;11.686;2022-10-10T08:39:37;11.1;91
70682;SHT31;58261;48.228;11.686;2022-10-10T08:42:58;11.1;91
70682;SHT31;58261;48.228;11.686;2022-10-10T08:46:18;11.3;91
70682;SHT31;58261;48.228;11.686;2022-10-10T08:49:38;11.3;91
70682;SHT31;58261;48.228;11.686;2022-10-10T08:52:58;11.3;91
70682;SHT31;58261;48.228;11.686;2022-10-10T08:56:20;11.4;91
70682;SHT31;58261;48.228;11.686;2022-10-10T08:59:37;11.4;91
70682;SHT31;58261;48.228;11.686;2022-10-10T09:02:57;11.4;91
70682;SHT31;58261;48.228;11.686;2022-10-10T09:06:21;11.6;90
70682;SHT31;58261;48.228;11.686;2022-10-10T09:09:39;11.6;90
70682;SHT31;58261;48.228;11.686;2022-10-10T09:12:59;11.6;90
70682;SHT31;58261;48.228;11.686;2022-10-10T09:16:19;11.9;90
70682;SHT31;58261;48.228;11.686;2022-10-10T09:19:38;11.9;90
70682;SHT31;58261;48.228;11.686;2022-10-10T09:22:58;11.9;90
70682;SHT31;58261;48.228;11.686;2022-10-10T09:26:18;11.9;90
70682;SHT31;58261;48.228;11.686;2022-10-10T09:29:39;12.2;89
70682;SHT31;58261;48.228;11.686;2022-10-10T09:32:57;12.2;89
70682;SHT31;58261;48.228;11.686;2022-10-10T09:36:18;12.2;89
70682;SHT31;58261;48.228;11.686;2022-10-10T09:39:37;12.5;88
70682;SHT31;58261;48.228;11.686;2022-10-10T09:42:57;12.5;88
70682;SHT31;58261;48.228;11.686;2022-10-10T09:46:17;12.5;88
70682;SHT31;58261;48.228;11.686;2022-10-10T09:49:37;13.1;85
70682;SHT31;58261;48.228;11.686;2022-10-10T09:52:57;13.1;85
70682;SHT31;58261;48.228;11.686;2022-10-10T09:56:18;13.1;85
70682;SHT31;58261;48.228;11.686;2022-10-10T09:59:38;13.3;84
70682;SHT31;58261;48.228;11.686;2022-10-10T10:06:17;13.3;84
70682;SHT31;58261;48.228;11.686;2022-10-10T10:09:37;13.3;84
70682;SHT31;58261;48.228;11.686;2022-10-10T10:12:57;13.7;83
70682;SHT31;58261;48.228;11.686;2022-10-10T10:16:17;13.7;83
70682;SHT31;58261;48.228;11.686;2022-10-10T10:19:38;13.7;83
70682;SHT31;58261;48.228;11.686;2022-10-10T10:22:57;13.9;83
70682;SHT31;58261;48.228;11.686;2022-10-10T10:26:18;13.9;83
70682;SHT31;58261;48.228;11.686;2022-10-10T10:29:37;13.9;83
70682;SHT31;58261;48.228;11.686;2022-10-10T10:32:57;14.2;82
70682;SHT31;58261;48.228;11.686;2022-10-10T10:36:20;14.2;82
70682;SHT31;58261;48.228;11.686;2022-10-10T10:39:39;14.2;82
70682;SHT31;58261;48.228;11.686;2022-10-10T10:43:03;14.2;82
70682;SHT31;58261;48.228;11.686;2022-10-10T10:46:20;14.5;81
70682;SHT31;58261;48.228;11.686;2022-10-10T10:49:39;14.5;81
70682;SHT31;58261;48.228;11.686;2022-10-10T10:52:58;14.5;81
70682;SHT31;58261;48.228;11.686;2022-10-10T10:56:18;14.7;80
70682;SHT31;58261;48.228;11.686;2022-10-10T10:59:41;14.7;80
70682;SHT31;58261;48.228;11.686;2022-10-10T11:03:01;14.7;80
70682;SHT31;58261;48.228;11.686;2022-10-10T11:06:21;14.9;80
70682;SHT31;58261;48.228;11.686;2022-10-10T11:09:38;14.9;80
70682;SHT31;58261;48.228;11.686;2022-10-10T11:12:59;14.9;80
70682;SHT31;58261;48.228;11.686;2022-10-10T11:16:18;15.0;80
70682;SHT31;58261;48.228;11.686;2022-10-10T11:19:37;15.0;80
70682;SHT31;58261;48.228;11.686;2022-10-10T11:22:59;15.0;80
70682;SHT31;58261;48.228;11.686;2022-10-10T11:26:19;15.0;80
70682;SHT31;58261;48.228;11.686;2022-10-10T11:29:44;15.3;80
70682;SHT31;58261;48.228;11.686;2022-10-10T11:32:58;15.3;80
70682;SHT31;58261;48.228;11.686;2022-10-10T11:36:18;15.3;80
70682;SHT31;58261;48.228;11.686;2022-10-10T11:39:38;15.3;80
70682;SHT31;58261;48.228;11.686;2022-10-10T11:42:58;15.3;80
70682;SHT31;58261;48.228;11.686;2022-10-10T11:46:19;15.3;80
70682;SHT31;58261;48.228;11.686;2022-10-10T11:49:38;15.6;78
70682;SHT31;58261;48.228;11.686;2022-10-10T11:52:57;15.6;78
70682;SHT31;58261;48.228;11.686;2022-10-10T11:56:20;15.6;78
70682;SHT31;58261;48.228;11.686;2022-10-10T11:59:38;16.1;77
70682;SHT31;58261;48.228;11.686;2022-10-10T12:02:57;16.1;77
70682;SHT31;58261;48.228;11.686;2022-10-10T12:06:18;16.1;77
70682;SHT31;58261;48.228;11.686;2022-10-10T12:09:37;16.1;77
70682;SHT31;58261;48.228;11.686;2022-10-10T12:12:59;15.8;78
70682;SHT31;58261;48.228;11.686;2022-10-10T12:16:18;15.8;78
70682;SHT31;58261;48.228;11.686;2022-10-10T12:19:37;15.8;78
70682;SHT31;58261;48.228;11.686;2022-10-10T12:26:18;15.9;78
70682;SHT31;58261;48.228;11.686;2022-10-10T12:29:39;15.9;78
70682;SHT31;58261;48.228;11.686;2022-10-10T12:32:57;16.3;76
70682;SHT31;58261;48.228;11.686;2022-10-10T12:39:37;16.3;76
70682;SHT31;58261;48.228;11.686;2022-10-10T12:42:59;16.2;77
70682;SHT31;58261;48.228;11.686;2022-10-10T12:46:18;16.2;77
70682;SHT31;58261;48.228;11.686;2022-10-10T12:49:37;16.2;77
70682;SHT31;58261;48.228;11.686;2022-10-10T12:52:58;16.2;77
70682;SHT31;58261;48.228;11.686;2022-10-10T12:56:17;16.0;78
70682;SHT31;58261;48.228;11.686;2022-10-10T12:59:37;16.0;78
70682;SHT31;58261;48.228;11.686;2022-10-10T13:02:57;16.0;78
70682;SHT31;58261;48.228;11.686;2022-10-10T13:06:27;16.2;77
70682;SHT31;58261;48.228;11.686;2022-10-10T13:09:37;16.2;77
70682;SHT31;58261;48.228;11.686;2022-10-10T13:12:57;16.2;77
70682;SHT31;58261;48.228;11.686;2022-10-10T13:16:18;16.0;78
70682;SHT31;58261;48.228;11.686;2022-10-10T13:19:39;16.0;78
70682;SHT31;58261;48.228;11.686;2022-10-10T13:22:57;16.0;78
70682;SHT31;58261;48.228;11.686;2022-10-10T13:26:19;16.2;77
70682;SHT31;58261;48.228;11.686;2022-10-10T13:29:37;16.2;77
70682;SHT31;58261;48.228;11.686;2022-10-10T13:32:57;16.2;77
70682;SHT31;58261;48.228;11.686;2022-10-10T13:36:18;16.2;77
70682;SHT31;58261;48.228;11.686;2022-10-10T13:39:37;16.3;78
70682;SHT31;58261;48.228;11.686;2022-10-10T13:42:57;16.3;78
70682;SHT31;58261;48.228;11.686;2022-10-10T13:46:18;16.3;78
70682;SHT31;58261;48.228;11.686;2022-10-10T13:49:37;16.3;78
70682;SHT31;58261;48.228;11.686;2022-10-10T13:56:20;16.3;78
70682;SHT31;58261;48.228;11.686;2022-10-10T13:59:37;16.2;78
70682;SHT31;58261;48.228;11.686;2022-10-10T14:02:57;16.2;78
70682;SHT31;58261;48.228;11.686;2022-10-10T14:06:17;16.2;78
70682;SHT31;58261;48.228;11.686;2022-10-10T14:09:38;16.2;78
70682;SHT31;58261;48.228;11.686;2022-10-10T14:12:58;16.2;78
70682;SHT31;58261;48.228;11.686;2022-10-10T14:16:21;16.2;78
70682;SHT31;58261;48.228;11.686;2022-10-10T14:19:37;16.2;78
70682;SHT31;58261;48.228;11.686;2022-10-10T14:22:57;16.2;78
70682;SHT31;58261;48.228;11.686;2022-10-10T14:26:18;16.2;78
70682;SHT31;58261;48.228;11.686;2022-10-10T14:29:37;16.2;78
70682;SHT31;58261;48.228;11.686;2022-10-10T14:32:57;16.4;78
70682;SHT31;58261;48.228;11.686;2022-10-10T14:36:17;16.4;78
70682;SHT31;58261;48.228;11.686;2022-10-10T14:39:37;16.4;78
70682;SHT31;58261;48.228;11.686;2022-10-10T14:42:57;16.2;80
70682;SHT31;58261;48.228;11.686;2022-10-10T14:46:17;16.2;80
70682;SHT31;58261;48.228;11.686;2022-10-10T14:49:37;16.2;80
70682;SHT31;58261;48.228;11.686;2022-10-10T14:52:57;16.0;81
70682;SHT31;58261;48.228;11.686;2022-10-10T14:56:17;16.0;81
70682;SHT31;58261;48.228;11.686;2022-10-10T14:59:37;16.0;81
70682;SHT31;58261;48.228;11.686;2022-10-10T15:02:57;16.0;81
70682;SHT31;58261;48.228;11.686;2022-10-10T15:06:17;15.9;82
70682;SHT31;58261;48.228;11.686;2022-10-10T15:09:37;15.9;82
70682;SHT31;58261;48.228;11.686;2022-10-10T15:12:57;15.9;82
70682;SHT31;58261;48.228;11.686;2022-10-10T15:16:17;15.9;83
70682;SHT31;58261;48.228;11.686;2022-10-10T15:19:37;15.9;83
70682;SHT31;58261;48.228;11.686;2022-10-10T15:22:57;15.9;83
70682;SHT31;58261;48.228;11.686;2022-10-10T15:26:17;15.9;81
70682;SHT31;58261;48.228;11.686;2022-10-10T15:29:37;15.9;81
70682;SHT31;58261;48.228;11.686;2022-10-10T15:32:57;15.9;81
70682;SHT31;58261;48.228;11.686;2022-10-10T15:36:17;15.9;81
70682;SHT31;58261;48.228;11.686;2022-10-10T15:39:37;15.9;81
70682;SHT31;58261;48.228;11.686;2022-10-10T15:42:57;15.9;81
70682;SHT31;58261;48.228;11.686;2022-10-10T15:46:17;15.9;81
70682;SHT31;58261;48.228;11.686;2022-10-10T15:49:37;15.9;81
70682;SHT31;58261;48.228;11.686;2022-10-10T15:52:57;15.9;81
70682;SHT31;58261;48.228;11.686;2022-10-10T15:56:17;15.9;81
70682;SHT31;58261;48.228;11.686;2022-10-10T15:59:37;15.9;83
70682;SHT31;58261;48.228;11.686;2022-10-10T16:02:57;15.9;83
70682;SHT31;58261;48.228;11.686;2022-10-10T16:06:18;15.9;83
70682;SHT31;58261;48.228;11.686;2022-10-10T16:09:37;15.8;84
70682;SHT31;58261;48.228;11.686;2022-10-10T16:12:57;15.8;84
70682;SHT31;58261;48.228;11.686;2022-10-10T16:16:18;15.8;84
70682;SHT31;58261;48.228;11.686;2022-10-10T16:19:37;15.8;84
70682;SHT31;58261;48.228;11.686;2022-10-10T16:22:57;15.8;84
70682;SHT31;58261;48.228;11.686;2022-10-10T16:26:18;15.8;84
70682;SHT31;58261;48.228;11.686;2022-10-10T16:29:37;15.8;84
70682;SHT31;58261;48.228;11.686;2022-10-10T16:32:57;15.8;85
70682;SHT31;58261;48.228;11.686;2022-10-10T16:36:18;15.8;85
70682;SHT31;58261;48.228;11.686;2022-10-10T16:39:37;15.8;85
70682;SHT31;58261;48.228;11.686;2022-10-10T16:42:57;15.7;85
70682;SHT31;58261;48.228;11.686;2022-10-10T16:46:21;15.7;85
70682;SHT31;58261;48.228;11.686;2022-10-10T16:49:37;15.7;85
70682;SHT31;58261;48.228;11.686;2022-10-10T16:52:57;15.7;85
70682;SHT31;58261;48.228;11.686;2022-10-10T16:56:18;15.7;85
70682;SHT31;58261;48.228;11.686;2022-10-10T16:59:37;15.7;85
70682;SHT31;58261;48.228;11.686;2022-10-10T17:02:57;15.7;85
70682;SHT31;58261;48.228;11.686;2022-10-10T17:06:18;15.6;85
70682;SHT31;58261;48.228;11.686;2022-10-10T17:09:37;15.6;85
70682;SHT31;58261;48.228;11.686;2022-10-10T17:12:57;15.6;85
70682;SHT31;58261;48.228;11.686;2022-10-10T17:16:18;15.6;86
70682;SHT31;58261;48.228;11.686;2022-10-10T17:19:37;15.6;86
70682;SHT31;58261;48.228;11.686;2022-10-10T17:22:57;15.6;86
70682;SHT31;58261;48.228;11.686;2022-10-10T17:26:18;15.6;86
70682;SHT31;58261;48.228;11.686;2022-10-10T17:29:37;15.6;86
70682;SHT31;58261;48.228;11.686;2022-10-10T17:32:57;15.6;86
70682;SHT31;58261;48.228;11.686;2022-10-10T17:36:18;15.5;86
70682;SHT31;58261;48.228;11.686;2022-10-10T17:39:37;15.5;86
70682;SHT31;58261;48.228;11.686;2022-10-10T17:42:57;15.5;86
70682;SHT31;58261;48.228;11.686;2022-10-10T17:46:18;15.5;86
70682;SHT31;58261;48.228;11.686;2022-10-10T17:49:37;15.5;86
70682;SHT31;58261;48.228;11.686;2022-10-10T17:52:57;15.5;86
70682;SHT31;58261;48.228;11.686;2022-10-10T17:56:18;15.5;86
70682;SHT31;58261;48.228;11.686;2022-10-10T17:59:37;15.4;86
70682;SHT31;58261;48.228;11.686;2022-10-10T18:02:57;15.4;86
70682;SHT31;58261;48.228;11.686;2022-10-10T18:06:18;15.4;86
70682;SHT31;58261;48.228;11.686;2022-10-10T18:09:37;15.4;86
70682;SHT31;58261;48.228;11.686;2022-10-10T18:12:58;15.4;86
70682;SHT31;58261;48.228;11.686;2022-10-10T18:16:18;15.4;86
70682;SHT31;58261;48.228;11.686;2022-10-10T18:19:37;15.4;87
70682;SHT31;58261;48.228;11.686;2022-10-10T18:22:57;15.4;87
70682;SHT31;58261;48.228;11.686;2022-10-10T18:26:18;15.4;87
70682;SHT31;58261;48.228;11.686;2022-10-10T18:29:37;15.4;87
70682;SHT31;58261;48.228;11.686;2022-10-10T18:32:57;15.3;87
70682;SHT31;58261;48.228;11.686;2022-10-10T18:36:18;15.3;87
70682;SHT31;58261;48.228;11.686;2022-10-10T18:39:37;15.3;87
70682;SHT31;58261;48.228;11.686;2022-10-10T18:42:57;15.3;86
70682;SHT31;58261;48.228;11.686;2022-10-10T18:46:18;15.3;86
70682;SHT31;58261;48.228;11.686;2022-10-10T18:49:37;15.3;86
70682;SHT31;58261;48.228;11.686;2022-10-10T18:52:57;15.2;86
70682;SHT31;58261;48.228;11.686;2022-10-10T18:56:18;15.2;86
70682;SHT31;58261;48.228;11.686;2022-10-10T18:59:37;15.2;86
70682;SHT31;58261;48.228;11.686;2022-10-10T19:02:57;15.1;86
70682;SHT31;58261;48.228;11.686;2022-10-10T19:06:17;15.1;86
70682;SHT31;58261;48.228;11.686;2022-10-10T19:09:37;15.1;86
70682;SHT31;58261;48.228;11.686;2022-10-10T19:12:57;15.1;86
70682;SHT31;58261;48.228;11.686;2022-10-10T19:16:18;15.0;86
70682;SHT31;58261;48.228;11.686;2022-10-10T19:19:37;15.0;86
70682;SHT31;58261;48.228;11.686;2022-10-10T19:22:57;15.0;86
70682;SHT31;58261;48.228;11.686;2022-10-10T19:26:17;14.9;86
70682;SHT31;58261;48.228;11.686;2022-10-10T19:29:37;14.9;86
70682;SHT31;58261;48.228;11.686;2022-10-10T19:32:57;14.9;86
70682;SHT31;58261;48.228;11.686;2022-10-10T19:36:17;14.9;85
70682;SHT31;58261;48.228;11.686;2022-10-10T19:39:37;14.9;85
70682;SHT31;58261;48.228;11.686;2022-10-10T19:42:57;14.9;85
70682;SHT31;58261;48.228;11.686;2022-10-10T19:46:18;14.8;85
70682;SHT31;58261;48.228;11.686;2022-10-10T19:49:37;14.8;85
70682;SHT31;58261;48.228;11.686;2022-10-10T19:52:57;14.8;85
70682;SHT31;58261;48.228;11.686;2022-10-10T19:56:18;14.8;85
70682;SHT31;58261;48.228;11.686;2022-10-10T19:59:37;14.7;85
70682;SHT31;58261;48.228;11.686;2022-10-10T20:02:57;14.7;85
70682;SHT31;58261;48.228;11.686;2022-10-10T20:06:19;14.7;85
70682;SHT31;58261;48.228;11.686;2022-10-10T20:09:37;14.6;84
70682;SHT31;58261;48.228;11.686;2022-10-10T20:12:57;14.6;84
70682;SHT31;58261;48.228;11.686;2022-10-10T20:16:17;14.6;84
70682;SHT31;58261;48.228;11.686;2022-10-10T20:19:37;14.5;84
70682;SHT31;58261;48.228;11.686;2022-10-10T20:22:57;14.5;84
70682;SHT31;58261;48.228;11.686;2022-10-10T20:26:18;14.5;84
70682;SHT31;58261;48.228;11.686;2022-10-10T20:29:37;14.4;84
70682;SHT31;58261;48.228;11.686;2022-10-10T20:32:57;14.4;84
70682;SHT31;58261;48.228;11.686;2022-10-10T20:36:18;14.4;84
70682;SHT31;58261;48.228;11.686;2022-10-10T20:39:37;14.4;84
70682;SHT31;58261;48.228;11.686;2022-10-10T20:42:57;14.2;83
70682;SHT31;58261;48.228;11.686;2022-10-10T20:46:17;14.2;83
70682;SHT31;58261;48.228;11.686;2022-10-10T20:49:37;14.2;83
70682;SHT31;58261;48.228;11.686;2022-10-10T20:52:57;14.2;83
70682;SHT31;58261;48.228;11.686;2022-10-10T20:56:17;14.2;83
70682;SHT31;58261;48.228;11.686;2022-10-10T20:59:37;14.2;83
70682;SHT31;58261;48.228;11.686;2022-10-10T21:02:57;14.0;82
70682;SHT31;58261;48.228;11.686;2022-10-10T21:06:18;14.0;82
70682;SHT31;58261;48.228;11.686;2022-10-10T21:09:37;14.0;82
70682;SHT31;58261;48.228;11.686;2022-10-10T21:12:57;14.0;83
70682;SHT31;58261;48.228;11.686;2022-10-10T21:16:17;14.0;83
70682;SHT31;58261;48.228;11.686;2022-10-10T21:19:37;14.0;83
70682;SHT31;58261;48.228;11.686;2022-10-10T21:22:57;14.0;83
70682;SHT31;58261;48.228;11.686;2022-10-10T21:26:18;13.9;84
70682;SHT31;58261;48.228;11.686;2022-10-10T21:29:37;13.9;84
70682;SHT31;58261;48.228;11.686;2022-10-10T21:32:57;13.9;84
70682;SHT31;58261;48.228;11.686;2022-10-10T21:36:18;13.8;81
70682;SHT31;58261;48.228;11.686;2022-10-10T21:39:37;13.8;81
70682;SHT31;58261;48.228;11.686;2022-10-10T21:42:57;13.8;81
70682;SHT31;58261;48.228;11.686;2022-10-10T21:46:18;13.6;82
70682;SHT31;58261;48.228;11.686;2022-10-10T21:49:37;13.6;82
70682;SHT31;58261;48.228;11.686;2022-10-10T21:52:57;13.6;82
70682;SHT31;58261;48.228;11.686;2022-10-10T21:56:17;13.6;82
70682;SHT31;58261;48.228;11.686;2022-10-10T21:59:37;13.5;81
70682;SHT31;58261;48.228;11.686;2022-10-10T22:02:57;13.5;81
70682;SHT31;58261;48.228;11.686;2022-10-10T22:06:17;13.5;81
70682;SHT31;58261;48.228;11.686;2022-10-10T22:09:37;13.5;82
70682;SHT31;58261;48.228;11.686;2022-10-10T22:12:57;13.5;82
70682;SHT31;58261;48.228;11.686;2022-10-10T22:16:17;13.5;82
70682;SHT31;58261;48.228;11.686;2022-10-10T22:19:37;13.5;84
70682;SHT31;58261;48.228;11.686;2022-10-10T22:22:57;13.5;84
70682;SHT31;58261;48.228;11.686;2022-10-10T22:26:17;13.5;84